sensor_id;sensor_type;location;lat;lon;timestamp;temperature;humidity
53268;DHT22;39156;51.176;6.738;2022-08-05T00:02:04;21.70;51.60
53268;DHT22;39156;51.176;6.738;2022-08-05T00:04:29;21.70;51.20
53268;DHT22;39156;51.176;6.738;2022-08-05T00:06:55;21.70;51.20
53268;DHT22;39156;51.176;6.738;2022-08-05T00:09:21;21.60;51.50
53268;DHT22;39156;51.176;6.738;2022-08-05T00:11:47;21.60;51.30
53268;DHT22;39156;51.176;6.738;2022-08-05T00:14:13;21.70;51.30
53268;DHT22;39156;51.176;6.738;2022-08-05T00:16:38;21.60;51.10
53268;DHT22;39156;51.176;6.738;2022-08-05T00:19:04;21.60;51.40
53268;DHT22;39156;51.176;6.738;2022-08-05T00:21:30;21.60;50.80
53268;DHT22;39156;51.176;6.738;2022-08-05T00:23:56;21.60;50.80
53268;DHT22;39156;51.176;6.738;2022-08-05T00:26:21;21.60;51.40
53268;DHT22;39156;51.176;6.738;2022-08-05T00:28:47;21.60;51.50
53268;DHT22;39156;51.176;6.738;2022-08-05T00:31:14;21.60;51.80
53268;DHT22;39156;51.176;6.738;2022-08-05T00:33:39;21.60;51.70
53268;DHT22;39156;51.176;6.738;2022-08-05T00:36:05;21.60;52.20
53268;DHT22;39156;51.176;6.738;2022-08-05T00:38:30;21.60;52.30
53268;DHT22;39156;51.176;6.738;2022-08-05T00:40:56;21.60;50.80
53268;DHT22;39156;51.176;6.738;2022-08-05T00:43:23;21.60;50.40
53268;DHT22;39156;51.176;6.738;2022-08-05T00:45:49;21.60;50.40
53268;DHT22;39156;51.176;6.738;2022-08-05T00:48:20;21.60;50.50
53268;DHT22;39156;51.176;6.738;2022-08-05T00:50:49;21.50;50.50
53268;DHT22;39156;51.176;6.738;2022-08-05T00:53:16;21.50;51.10
53268;DHT22;39156;51.176;6.738;2022-08-05T00:55:44;21.40;50.80
53268;DHT22;39156;51.176;6.738;2022-08-05T00:58:10;21.30;51.10
53268;DHT22;39156;51.176;6.738;2022-08-05T01:00:36;21.30;51.30
53268;DHT22;39156;51.176;6.738;2022-08-05T01:03:02;21.20;52.00
53268;DHT22;39156;51.176;6.738;2022-08-05T01:05:28;21.10;51.90
53268;DHT22;39156;51.176;6.738;2022-08-05T01:07:54;21.00;52.00
53268;DHT22;39156;51.176;6.738;2022-08-05T01:10:21;20.90;52.00
53268;DHT22;39156;51.176;6.738;2022-08-05T01:12:51;20.80;52.60
53268;DHT22;39156;51.176;6.738;2022-08-05T01:15:20;20.80;53.00
53268;DHT22;39156;51.176;6.738;2022-08-05T01:17:51;20.70;52.80
53268;DHT22;39156;51.176;6.738;2022-08-05T01:20:25;20.60;53.40
53268;DHT22;39156;51.176;6.738;2022-08-05T01:25:55;20.50;53.00
53268;DHT22;39156;51.176;6.738;2022-08-05T01:28:51;20.50;53.30
53268;DHT22;39156;51.176;6.738;2022-08-05T01:34:06;20.40;53.60
53268;DHT22;39156;51.176;6.738;2022-08-05T01:36:36;20.40;53.80
53268;DHT22;39156;51.176;6.738;2022-08-05T01:39:05;20.30;54.00
53268;DHT22;39156;51.176;6.738;2022-08-05T01:41:32;20.30;54.50
53268;DHT22;39156;51.176;6.738;2022-08-05T01:43:59;20.20;54.10
53268;DHT22;39156;51.176;6.738;2022-08-05T01:46:26;20.20;53.50
53268;DHT22;39156;51.176;6.738;2022-08-05T01:48:53;20.20;53.70
53268;DHT22;39156;51.176;6.738;2022-08-05T01:51:19;20.20;53.70
53268;DHT22;39156;51.176;6.738;2022-08-05T01:53:47;20.20;54.20
53268;DHT22;39156;51.176;6.738;2022-08-05T01:56:14;20.20;55.50
53268;DHT22;39156;51.176;6.738;2022-08-05T01:58:40;20.20;55.70
53268;DHT22;39156;51.176;6.738;2022-08-05T02:01:07;20.20;55.80
53268;DHT22;39156;51.176;6.738;2022-08-05T02:03:35;20.30;54.60
53268;DHT22;39156;51.176;6.738;2022-08-05T02:06:02;20.30;55.70
53268;DHT22;39156;51.176;6.738;2022-08-05T02:08:30;20.30;54.30
53268;DHT22;39156;51.176;6.738;2022-08-05T02:11:06;20.40;54.70
53268;DHT22;39156;51.176;6.738;2022-08-05T02:13:36;20.40;54.10
53268;DHT22;39156;51.176;6.738;2022-08-05T02:16:50;20.40;54.40
53268;DHT22;39156;51.176;6.738;2022-08-05T02:21:53;20.40;53.70
53268;DHT22;39156;51.176;6.738;2022-08-05T02:24:25;20.40;54.50
53268;DHT22;39156;51.176;6.738;2022-08-05T02:26:57;20.30;54.30
53268;DHT22;39156;51.176;6.738;2022-08-05T02:29:24;20.30;54.30
53268;DHT22;39156;51.176;6.738;2022-08-05T02:31:52;20.20;54.40
53268;DHT22;39156;51.176;6.738;2022-08-05T02:34:18;20.20;54.50
53268;DHT22;39156;51.176;6.738;2022-08-05T02:36:46;20.10;54.60
53268;DHT22;39156;51.176;6.738;2022-08-05T02:39:14;20.10;55.00
53268;DHT22;39156;51.176;6.738;2022-08-05T02:41:47;20.00;55.70
53268;DHT22;39156;51.176;6.738;2022-08-05T02:44:13;20.00;55.00
53268;DHT22;39156;51.176;6.738;2022-08-05T02:46:41;19.90;56.20
53268;DHT22;39156;51.176;6.738;2022-08-05T02:49:08;19.90;56.60
53268;DHT22;39156;51.176;6.738;2022-08-05T02:51:36;19.90;56.90
53268;DHT22;39156;51.176;6.738;2022-08-05T02:54:01;19.90;55.60
53268;DHT22;39156;51.176;6.738;2022-08-05T02:56:28;19.90;55.30
53268;DHT22;39156;51.176;6.738;2022-08-05T02:58:53;19.90;54.70
53268;DHT22;39156;51.176;6.738;2022-08-05T03:01:22;20.00;56.60
53268;DHT22;39156;51.176;6.738;2022-08-05T03:03:49;19.90;57.40
53268;DHT22;39156;51.176;6.738;2022-08-05T03:06:20;20.00;58.40
53268;DHT22;39156;51.176;6.738;2022-08-05T03:08:46;19.90;58.40
53268;DHT22;39156;51.176;6.738;2022-08-05T03:11:20;19.80;58.20
53268;DHT22;39156;51.176;6.738;2022-08-05T03:13:47;19.70;58.10
53268;DHT22;39156;51.176;6.738;2022-08-05T03:16:13;19.70;59.10
53268;DHT22;39156;51.176;6.738;2022-08-05T03:18:39;19.60;60.30
53268;DHT22;39156;51.176;6.738;2022-08-05T03:21:04;19.50;60.10
53268;DHT22;39156;51.176;6.738;2022-08-05T03:23:31;19.50;59.60
53268;DHT22;39156;51.176;6.738;2022-08-05T03:25:58;19.40;60.40
53268;DHT22;39156;51.176;6.738;2022-08-05T03:28:23;19.40;60.70
53268;DHT22;39156;51.176;6.738;2022-08-05T03:30:49;19.40;60.60
53268;DHT22;39156;51.176;6.738;2022-08-05T03:33:15;19.50;60.70
53268;DHT22;39156;51.176;6.738;2022-08-05T03:35:41;19.50;60.80
53268;DHT22;39156;51.176;6.738;2022-08-05T03:38:10;19.50;60.90
53268;DHT22;39156;51.176;6.738;2022-08-05T03:40:38;19.60;61.30
53268;DHT22;39156;51.176;6.738;2022-08-05T03:43:08;19.60;61.00
53268;DHT22;39156;51.176;6.738;2022-08-05T03:45:33;19.70;60.90
53268;DHT22;39156;51.176;6.738;2022-08-05T03:47:59;19.80;60.90
53268;DHT22;39156;51.176;6.738;2022-08-05T03:50:38;19.80;60.60
53268;DHT22;39156;51.176;6.738;2022-08-05T03:53:11;19.90;60.50
53268;DHT22;39156;51.176;6.738;2022-08-05T03:55:45;19.90;60.30
53268;DHT22;39156;51.176;6.738;2022-08-05T03:58:17;20.00;60.20
53268;DHT22;39156;51.176;6.738;2022-08-05T04:00:43;20.00;59.70
53268;DHT22;39156;51.176;6.738;2022-08-05T04:03:09;20.10;59.60
53268;DHT22;39156;51.176;6.738;2022-08-05T04:05:36;20.10;59.40
53268;DHT22;39156;51.176;6.738;2022-08-05T04:08:03;20.20;59.70
53268;DHT22;39156;51.176;6.738;2022-08-05T04:10:30;20.10;59.00
53268;DHT22;39156;51.176;6.738;2022-08-05T04:12:57;20.20;57.10
53268;DHT22;39156;51.176;6.738;2022-08-05T04:15:22;20.20;56.90
53268;DHT22;39156;51.176;6.738;2022-08-05T04:17:48;20.20;56.80
53268;DHT22;39156;51.176;6.738;2022-08-05T04:20:21;20.20;56.70
53268;DHT22;39156;51.176;6.738;2022-08-05T04:22:47;20.10;57.30
53268;DHT22;39156;51.176;6.738;2022-08-05T04:25:13;20.10;57.20
53268;DHT22;39156;51.176;6.738;2022-08-05T04:27:39;20.10;56.80
53268;DHT22;39156;51.176;6.738;2022-08-05T04:30:05;20.10;57.00
53268;DHT22;39156;51.176;6.738;2022-08-05T04:32:32;20.10;57.10
53268;DHT22;39156;51.176;6.738;2022-08-05T04:34:58;20.00;58.20
53268;DHT22;39156;51.176;6.738;2022-08-05T04:37:23;20.00;57.30
53268;DHT22;39156;51.176;6.738;2022-08-05T04:39:49;20.00;57.70
53268;DHT22;39156;51.176;6.738;2022-08-05T04:42:15;19.90;57.10
53268;DHT22;39156;51.176;6.738;2022-08-05T04:44:40;19.90;57.40
53268;DHT22;39156;51.176;6.738;2022-08-05T04:47:06;19.90;57.10
53268;DHT22;39156;51.176;6.738;2022-08-05T04:49:31;19.90;57.30
53268;DHT22;39156;51.176;6.738;2022-08-05T04:51:57;19.80;57.70
53268;DHT22;39156;51.176;6.738;2022-08-05T04:54:23;19.80;57.50
53268;DHT22;39156;51.176;6.738;2022-08-05T04:56:52;19.80;57.50
53268;DHT22;39156;51.176;6.738;2022-08-05T04:59:18;19.70;57.80
53268;DHT22;39156;51.176;6.738;2022-08-05T05:01:45;19.70;58.80
53268;DHT22;39156;51.176;6.738;2022-08-05T05:04:10;19.70;58.00
53268;DHT22;39156;51.176;6.738;2022-08-05T05:06:36;19.70;58.50
53268;DHT22;39156;51.176;6.738;2022-08-05T05:09:02;19.80;57.80
53268;DHT22;39156;51.176;6.738;2022-08-05T05:11:28;19.80;58.00
53268;DHT22;39156;51.176;6.738;2022-08-05T05:13:53;19.80;58.10
53268;DHT22;39156;51.176;6.738;2022-08-05T05:16:19;19.80;57.70
53268;DHT22;39156;51.176;6.738;2022-08-05T05:18:44;19.80;57.50
53268;DHT22;39156;51.176;6.738;2022-08-05T05:21:10;19.90;57.60
53268;DHT22;39156;51.176;6.738;2022-08-05T05:23:36;19.90;58.00
53268;DHT22;39156;51.176;6.738;2022-08-05T05:26:01;19.80;58.70
53268;DHT22;39156;51.176;6.738;2022-08-05T05:28:27;19.80;58.10
53268;DHT22;39156;51.176;6.738;2022-08-05T05:30:52;19.80;58.00
53268;DHT22;39156;51.176;6.738;2022-08-05T05:33:18;19.80;58.30
53268;DHT22;39156;51.176;6.738;2022-08-05T05:35:44;19.80;58.30
53268;DHT22;39156;51.176;6.738;2022-08-05T05:38:11;19.80;58.20
53268;DHT22;39156;51.176;6.738;2022-08-05T05:40:37;19.80;58.40
53268;DHT22;39156;51.176;6.738;2022-08-05T05:43:02;19.80;58.70
53268;DHT22;39156;51.176;6.738;2022-08-05T05:45:28;19.80;58.60
53268;DHT22;39156;51.176;6.738;2022-08-05T05:48:06;19.80;58.50
53268;DHT22;39156;51.176;6.738;2022-08-05T05:50:31;19.80;58.30
53268;DHT22;39156;51.176;6.738;2022-08-05T05:52:57;19.80;58.70
53268;DHT22;39156;51.176;6.738;2022-08-05T05:55:31;19.80;58.30
53268;DHT22;39156;51.176;6.738;2022-08-05T05:57:57;19.80;58.40
53268;DHT22;39156;51.176;6.738;2022-08-05T06:00:28;19.90;58.50
53268;DHT22;39156;51.176;6.738;2022-08-05T06:02:57;19.80;58.50
53268;DHT22;39156;51.176;6.738;2022-08-05T06:05:22;19.80;58.40
53268;DHT22;39156;51.176;6.738;2022-08-05T06:07:48;19.80;58.50
53268;DHT22;39156;51.176;6.738;2022-08-05T06:10:14;19.80;58.50
53268;DHT22;39156;51.176;6.738;2022-08-05T06:12:39;19.70;58.90
53268;DHT22;39156;51.176;6.738;2022-08-05T06:15:05;19.80;58.90
53268;DHT22;39156;51.176;6.738;2022-08-05T06:17:32;19.70;59.00
53268;DHT22;39156;51.176;6.738;2022-08-05T06:19:57;19.70;58.90
53268;DHT22;39156;51.176;6.738;2022-08-05T06:22:24;19.60;58.80
53268;DHT22;39156;51.176;6.738;2022-08-05T06:24:51;19.60;59.00
53268;DHT22;39156;51.176;6.738;2022-08-05T06:27:17;19.60;58.90
53268;DHT22;39156;51.176;6.738;2022-08-05T06:29:43;19.60;58.90
53268;DHT22;39156;51.176;6.738;2022-08-05T06:32:09;19.60;59.00
53268;DHT22;39156;51.176;6.738;2022-08-05T06:34:35;19.60;58.90
53268;DHT22;39156;51.176;6.738;2022-08-05T06:37:01;19.50;59.00
53268;DHT22;39156;51.176;6.738;2022-08-05T06:39:26;19.50;59.40
53268;DHT22;39156;51.176;6.738;2022-08-05T06:41:52;19.50;59.70
53268;DHT22;39156;51.176;6.738;2022-08-05T06:44:17;19.40;60.00
53268;DHT22;39156;51.176;6.738;2022-08-05T06:46:43;19.40;60.20
53268;DHT22;39156;51.176;6.738;2022-08-05T06:49:09;19.30;60.10
53268;DHT22;39156;51.176;6.738;2022-08-05T06:51:34;19.20;60.00
53268;DHT22;39156;51.176;6.738;2022-08-05T06:54:01;19.30;60.40
53268;DHT22;39156;51.176;6.738;2022-08-05T06:56:27;19.10;60.70
53268;DHT22;39156;51.176;6.738;2022-08-05T06:58:53;19.10;61.10
53268;DHT22;39156;51.176;6.738;2022-08-05T07:01:19;19.00;61.10
53268;DHT22;39156;51.176;6.738;2022-08-05T07:03:45;19.00;61.60
53268;DHT22;39156;51.176;6.738;2022-08-05T07:06:11;18.90;61.80
53268;DHT22;39156;51.176;6.738;2022-08-05T07:08:36;18.80;61.80
53268;DHT22;39156;51.176;6.738;2022-08-05T07:11:02;18.70;61.80
53268;DHT22;39156;51.176;6.738;2022-08-05T07:13:29;18.70;62.10
53268;DHT22;39156;51.176;6.738;2022-08-05T07:16:13;18.60;62.40
53268;DHT22;39156;51.176;6.738;2022-08-05T07:18:58;18.60;62.20
53268;DHT22;39156;51.176;6.738;2022-08-05T07:21:23;18.50;62.30
53268;DHT22;39156;51.176;6.738;2022-08-05T07:23:49;18.50;62.60
53268;DHT22;39156;51.176;6.738;2022-08-05T07:26:14;18.50;62.90
53268;DHT22;39156;51.176;6.738;2022-08-05T07:28:40;18.50;63.50
53268;DHT22;39156;51.176;6.738;2022-08-05T07:31:06;18.40;63.50
53268;DHT22;39156;51.176;6.738;2022-08-05T07:33:32;18.40;63.80
53268;DHT22;39156;51.176;6.738;2022-08-05T07:35:57;18.40;63.70
53268;DHT22;39156;51.176;6.738;2022-08-05T07:38:23;18.40;63.70
53268;DHT22;39156;51.176;6.738;2022-08-05T07:40:49;18.40;63.80
53268;DHT22;39156;51.176;6.738;2022-08-05T07:43:15;18.30;63.60
53268;DHT22;39156;51.176;6.738;2022-08-05T07:45:41;18.30;63.70
53268;DHT22;39156;51.176;6.738;2022-08-05T07:48:08;18.30;63.80
53268;DHT22;39156;51.176;6.738;2022-08-05T07:50:34;18.30;63.90
53268;DHT22;39156;51.176;6.738;2022-08-05T07:53:00;18.30;63.70
53268;DHT22;39156;51.176;6.738;2022-08-05T07:55:26;18.20;63.50
53268;DHT22;39156;51.176;6.738;2022-08-05T07:57:52;18.30;63.30
53268;DHT22;39156;51.176;6.738;2022-08-05T08:00:17;18.30;63.40
53268;DHT22;39156;51.176;6.738;2022-08-05T08:02:43;18.30;63.50
53268;DHT22;39156;51.176;6.738;2022-08-05T08:05:09;18.30;63.60
53268;DHT22;39156;51.176;6.738;2022-08-05T08:07:35;18.30;63.60
53268;DHT22;39156;51.176;6.738;2022-08-05T08:10:00;18.30;63.30
53268;DHT22;39156;51.176;6.738;2022-08-05T08:12:26;18.20;63.40
53268;DHT22;39156;51.176;6.738;2022-08-05T08:14:52;18.20;63.40
53268;DHT22;39156;51.176;6.738;2022-08-05T08:17:17;18.30;63.70
53268;DHT22;39156;51.176;6.738;2022-08-05T08:19:43;18.20;63.40
53268;DHT22;39156;51.176;6.738;2022-08-05T08:22:10;18.30;63.40
53268;DHT22;39156;51.176;6.738;2022-08-05T08:24:36;18.20;63.20
53268;DHT22;39156;51.176;6.738;2022-08-05T08:27:02;18.20;63.10
53268;DHT22;39156;51.176;6.738;2022-08-05T08:29:28;18.20;63.20
53268;DHT22;39156;51.176;6.738;2022-08-05T08:31:54;18.10;63.00
53268;DHT22;39156;51.176;6.738;2022-08-05T08:34:20;18.10;62.90
53268;DHT22;39156;51.176;6.738;2022-08-05T08:36:47;18.10;62.90
53268;DHT22;39156;51.176;6.738;2022-08-05T08:39:13;18.10;62.80
53268;DHT22;39156;51.176;6.738;2022-08-05T08:41:42;18.10;62.80
53268;DHT22;39156;51.176;6.738;2022-08-05T08:44:10;18.10;62.90
53268;DHT22;39156;51.176;6.738;2022-08-05T08:46:36;18.10;62.70
53268;DHT22;39156;51.176;6.738;2022-08-05T08:49:02;18.10;62.70
53268;DHT22;39156;51.176;6.738;2022-08-05T08:51:30;18.10;62.60
53268;DHT22;39156;51.176;6.738;2022-08-05T08:53:57;18.10;62.50
53268;DHT22;39156;51.176;6.738;2022-08-05T08:56:24;18.10;62.80
53268;DHT22;39156;51.176;6.738;2022-08-05T08:58:50;18.10;62.70
53268;DHT22;39156;51.176;6.738;2022-08-05T09:01:16;18.10;62.90
53268;DHT22;39156;51.176;6.738;2022-08-05T09:03:44;18.10;62.70
53268;DHT22;39156;51.176;6.738;2022-08-05T09:06:11;18.10;62.80
53268;DHT22;39156;51.176;6.738;2022-08-05T09:08:37;18.20;62.60
53268;DHT22;39156;51.176;6.738;2022-08-05T09:11:02;18.20;62.80
53268;DHT22;39156;51.176;6.738;2022-08-05T09:13:28;18.30;62.80
53268;DHT22;39156;51.176;6.738;2022-08-05T09:15:53;18.30;62.40
53268;DHT22;39156;51.176;6.738;2022-08-05T09:18:19;18.40;62.50
53268;DHT22;39156;51.176;6.738;2022-08-05T09:20:45;18.40;62.30
53268;DHT22;39156;51.176;6.738;2022-08-05T09:25:38;18.50;62.00
53268;DHT22;39156;51.176;6.738;2022-08-05T09:28:12;18.60;62.00
53268;DHT22;39156;51.176;6.738;2022-08-05T09:30:41;18.60;61.90
53268;DHT22;39156;51.176;6.738;2022-08-05T09:33:18;18.70;61.80
53268;DHT22;39156;51.176;6.738;2022-08-05T09:38:23;18.70;61.60
53268;DHT22;39156;51.176;6.738;2022-08-05T09:40:49;18.80;61.90
53268;DHT22;39156;51.176;6.738;2022-08-05T09:45:52;18.90;61.80
53268;DHT22;39156;51.176;6.738;2022-08-05T09:48:39;19.00;61.60
53268;DHT22;39156;51.176;6.738;2022-08-05T09:51:04;19.00;61.40
53268;DHT22;39156;51.176;6.738;2022-08-05T09:53:51;19.00;61.40
53268;DHT22;39156;51.176;6.738;2022-08-05T09:56:24;19.10;61.50
53268;DHT22;39156;51.176;6.738;2022-08-05T09:58:57;19.10;61.40
53268;DHT22;39156;51.176;6.738;2022-08-05T10:01:34;19.10;61.30
53268;DHT22;39156;51.176;6.738;2022-08-05T10:04:03;19.20;61.20
53268;DHT22;39156;51.176;6.738;2022-08-05T10:06:38;19.20;61.10
53268;DHT22;39156;51.176;6.738;2022-08-05T10:09:09;19.30;61.10
53268;DHT22;39156;51.176;6.738;2022-08-05T10:11:37;19.30;61.20
53268;DHT22;39156;51.176;6.738;2022-08-05T10:16:51;19.40;61.40
53268;DHT22;39156;51.176;6.738;2022-08-05T10:19:21;19.50;61.50
53268;DHT22;39156;51.176;6.738;2022-08-05T10:21:47;19.60;61.40
53268;DHT22;39156;51.176;6.738;2022-08-05T10:24:14;19.70;61.30
53268;DHT22;39156;51.176;6.738;2022-08-05T10:26:42;19.80;61.10
53268;DHT22;39156;51.176;6.738;2022-08-05T10:29:08;19.90;61.10
53268;DHT22;39156;51.176;6.738;2022-08-05T10:31:35;20.00;61.00
53268;DHT22;39156;51.176;6.738;2022-08-05T10:34:03;20.10;61.20
53268;DHT22;39156;51.176;6.738;2022-08-05T10:36:28;20.30;61.30
53268;DHT22;39156;51.176;6.738;2022-08-05T10:38:57;20.40;61.50
53268;DHT22;39156;51.176;6.738;2022-08-05T10:41:35;20.60;61.60
53268;DHT22;39156;51.176;6.738;2022-08-05T10:44:11;20.80;61.40
53268;DHT22;39156;51.176;6.738;2022-08-05T10:46:50;21.00;61.60
53268;DHT22;39156;51.176;6.738;2022-08-05T10:49:18;21.20;61.70
53268;DHT22;39156;51.176;6.738;2022-08-05T10:51:45;21.40;61.30
53268;DHT22;39156;51.176;6.738;2022-08-05T10:54:15;21.60;61.00
53268;DHT22;39156;51.176;6.738;2022-08-05T10:59:30;21.80;59.20
53268;DHT22;39156;51.176;6.738;2022-08-05T11:02:06;21.90;58.70
53268;DHT22;39156;51.176;6.738;2022-08-05T11:04:42;21.90;58.60
53268;DHT22;39156;51.176;6.738;2022-08-05T11:07:14;22.00;58.40
53268;DHT22;39156;51.176;6.738;2022-08-05T11:12:40;22.20;58.30
53268;DHT22;39156;51.176;6.738;2022-08-05T11:15:18;22.30;57.40
53268;DHT22;39156;51.176;6.738;2022-08-05T11:17:52;22.40;57.60
53268;DHT22;39156;51.176;6.738;2022-08-05T11:26:09;22.70;56.50
53268;DHT22;39156;51.176;6.738;2022-08-05T11:33:28;22.90;55.20
53268;DHT22;39156;51.176;6.738;2022-08-05T11:36:00;22.90;55.40
53268;DHT22;39156;51.176;6.738;2022-08-05T11:41:24;23.10;55.20
53268;DHT22;39156;51.176;6.738;2022-08-05T11:43:59;23.20;54.70
53268;DHT22;39156;51.176;6.738;2022-08-05T11:48:53;23.30;55.10
53268;DHT22;39156;51.176;6.738;2022-08-05T11:51:19;23.40;54.50
53268;DHT22;39156;51.176;6.738;2022-08-05T11:53:45;23.50;55.50
53268;DHT22;39156;51.176;6.738;2022-08-05T11:56:12;23.60;54.60
53268;DHT22;39156;51.176;6.738;2022-08-05T11:58:38;23.70;54.30
53268;DHT22;39156;51.176;6.738;2022-08-05T12:01:06;23.70;53.80
53268;DHT22;39156;51.176;6.738;2022-08-05T12:03:40;23.70;53.30
53268;DHT22;39156;51.176;6.738;2022-08-05T12:06:07;23.80;53.20
53268;DHT22;39156;51.176;6.738;2022-08-05T12:08:35;23.80;53.20
53268;DHT22;39156;51.176;6.738;2022-08-05T12:11:08;23.80;53.10
53268;DHT22;39156;51.176;6.738;2022-08-05T12:13:34;23.80;52.90
53268;DHT22;39156;51.176;6.738;2022-08-05T12:16:00;23.80;53.00
53268;DHT22;39156;51.176;6.738;2022-08-05T12:18:32;23.90;52.40
53268;DHT22;39156;51.176;6.738;2022-08-05T12:21:21;23.90;52.00
53268;DHT22;39156;51.176;6.738;2022-08-05T12:23:58;23.90;52.10
53268;DHT22;39156;51.176;6.738;2022-08-05T12:26:36;24.00;52.50
53268;DHT22;39156;51.176;6.738;2022-08-05T12:29:18;24.00;51.90
53268;DHT22;39156;51.176;6.738;2022-08-05T12:31:46;24.10;51.80
53268;DHT22;39156;51.176;6.738;2022-08-05T12:34:13;24.10;51.50
53268;DHT22;39156;51.176;6.738;2022-08-05T12:36:40;24.20;51.50
53268;DHT22;39156;51.176;6.738;2022-08-05T12:39:06;24.20;50.90
53268;DHT22;39156;51.176;6.738;2022-08-05T12:41:32;24.20;50.60
53268;DHT22;39156;51.176;6.738;2022-08-05T12:44:00;24.20;49.90
53268;DHT22;39156;51.176;6.738;2022-08-05T12:46:30;24.20;50.10
53268;DHT22;39156;51.176;6.738;2022-08-05T12:48:57;24.20;50.30
53268;DHT22;39156;51.176;6.738;2022-08-05T12:51:42;24.20;50.20
53268;DHT22;39156;51.176;6.738;2022-08-05T12:54:16;24.20;49.90
53268;DHT22;39156;51.176;6.738;2022-08-05T12:56:48;24.30;49.60
53268;DHT22;39156;51.176;6.738;2022-08-05T13:01:52;24.20;49.30
53268;DHT22;39156;51.176;6.738;2022-08-05T13:04:19;24.20;49.70
53268;DHT22;39156;51.176;6.738;2022-08-05T13:06:44;24.30;50.00
53268;DHT22;39156;51.176;6.738;2022-08-05T13:09:11;24.30;50.20
53268;DHT22;39156;51.176;6.738;2022-08-05T13:11:41;24.30;49.70
53268;DHT22;39156;51.176;6.738;2022-08-05T13:14:18;24.30;49.50
53268;DHT22;39156;51.176;6.738;2022-08-05T13:16:49;24.30;49.30
53268;DHT22;39156;51.176;6.738;2022-08-05T13:19:16;24.20;49.10
53268;DHT22;39156;51.176;6.738;2022-08-05T13:21:44;24.10;48.80
53268;DHT22;39156;51.176;6.738;2022-08-05T13:24:10;24.00;48.70
53268;DHT22;39156;51.176;6.738;2022-08-05T13:26:36;23.90;48.60
53268;DHT22;39156;51.176;6.738;2022-08-05T13:29:02;23.70;49.00
53268;DHT22;39156;51.176;6.738;2022-08-05T13:31:28;23.70;48.40
53268;DHT22;39156;51.176;6.738;2022-08-05T13:33:53;23.50;48.60
53268;DHT22;39156;51.176;6.738;2022-08-05T13:36:19;23.40;48.80
53268;DHT22;39156;51.176;6.738;2022-08-05T13:38:45;23.20;49.00
53268;DHT22;39156;51.176;6.738;2022-08-05T13:41:10;23.00;49.20
53268;DHT22;39156;51.176;6.738;2022-08-05T13:43:36;22.90;49.40
53268;DHT22;39156;51.176;6.738;2022-08-05T13:46:02;22.70;49.50
53268;DHT22;39156;51.176;6.738;2022-08-05T13:48:27;22.70;49.70
53268;DHT22;39156;51.176;6.738;2022-08-05T13:50:53;22.60;49.90
53268;DHT22;39156;51.176;6.738;2022-08-05T13:53:19;22.50;49.90
53268;DHT22;39156;51.176;6.738;2022-08-05T13:55:44;22.50;50.10
53268;DHT22;39156;51.176;6.738;2022-08-05T13:58:10;22.60;50.10
53268;DHT22;39156;51.176;6.738;2022-08-05T14:00:35;22.60;49.80
53268;DHT22;39156;51.176;6.738;2022-08-05T14:03:01;22.60;49.50
53268;DHT22;39156;51.176;6.738;2022-08-05T14:05:27;22.60;49.30
53268;DHT22;39156;51.176;6.738;2022-08-05T14:07:52;22.60;48.90
53268;DHT22;39156;51.176;6.738;2022-08-05T14:10:21;22.70;48.60
53268;DHT22;39156;51.176;6.738;2022-08-05T14:12:50;22.70;48.60
53268;DHT22;39156;51.176;6.738;2022-08-05T14:15:16;22.70;48.30
53268;DHT22;39156;51.176;6.738;2022-08-05T14:17:42;22.70;48.20
53268;DHT22;39156;51.176;6.738;2022-08-05T14:20:08;22.70;48.10
53268;DHT22;39156;51.176;6.738;2022-08-05T14:22:34;22.60;48.00
53268;DHT22;39156;51.176;6.738;2022-08-05T14:25:00;22.60;48.20
53268;DHT22;39156;51.176;6.738;2022-08-05T14:27:26;22.60;48.20
53268;DHT22;39156;51.176;6.738;2022-08-05T14:29:51;22.60;48.30
53268;DHT22;39156;51.176;6.738;2022-08-05T14:32:17;22.60;48.30
53268;DHT22;39156;51.176;6.738;2022-08-05T14:34:43;22.70;48.50
53268;DHT22;39156;51.176;6.738;2022-08-05T14:37:08;22.70;48.70
53268;DHT22;39156;51.176;6.738;2022-08-05T14:39:34;22.70;48.80
53268;DHT22;39156;51.176;6.738;2022-08-05T14:42:00;22.80;48.80
53268;DHT22;39156;51.176;6.738;2022-08-05T14:44:25;22.90;48.60
53268;DHT22;39156;51.176;6.738;2022-08-05T14:46:51;22.90;48.60
53268;DHT22;39156;51.176;6.738;2022-08-05T14:49:16;23.00;48.30
53268;DHT22;39156;51.176;6.738;2022-08-05T14:51:42;23.00;48.20
53268;DHT22;39156;51.176;6.738;2022-08-05T14:54:08;23.10;48.30
53268;DHT22;39156;51.176;6.738;2022-08-05T14:56:34;23.10;48.30
53268;DHT22;39156;51.176;6.738;2022-08-05T14:58:59;23.20;48.40
53268;DHT22;39156;51.176;6.738;2022-08-05T15:01:26;23.20;48.40
53268;DHT22;39156;51.176;6.738;2022-08-05T15:03:52;23.30;49.20
53268;DHT22;39156;51.176;6.738;2022-08-05T15:06:18;23.40;48.60
53268;DHT22;39156;51.176;6.738;2022-08-05T15:08:44;23.40;48.50
53268;DHT22;39156;51.176;6.738;2022-08-05T15:11:10;23.50;48.50
53268;DHT22;39156;51.176;6.738;2022-08-05T15:13:36;23.60;48.40
53268;DHT22;39156;51.176;6.738;2022-08-05T15:16:02;23.60;48.20
53268;DHT22;39156;51.176;6.738;2022-08-05T15:18:28;23.70;48.10
53268;DHT22;39156;51.176;6.738;2022-08-05T15:20:54;23.70;47.70
53268;DHT22;39156;51.176;6.738;2022-08-05T15:23:19;23.80;47.60
53268;DHT22;39156;51.176;6.738;2022-08-05T15:25:45;23.80;46.80
53268;DHT22;39156;51.176;6.738;2022-08-05T15:28:11;23.80;47.00
53268;DHT22;39156;51.176;6.738;2022-08-05T15:30:37;23.80;46.90
53268;DHT22;39156;51.176;6.738;2022-08-05T15:33:03;23.80;46.90
53268;DHT22;39156;51.176;6.738;2022-08-05T15:35:29;23.80;46.90
53268;DHT22;39156;51.176;6.738;2022-08-05T15:37:54;23.80;46.80
53268;DHT22;39156;51.176;6.738;2022-08-05T15:40:20;23.90;46.40
53268;DHT22;39156;51.176;6.738;2022-08-05T15:42:46;23.80;45.70
53268;DHT22;39156;51.176;6.738;2022-08-05T15:45:11;23.80;45.80
53268;DHT22;39156;51.176;6.738;2022-08-05T15:47:37;23.80;45.40
53268;DHT22;39156;51.176;6.738;2022-08-05T15:50:04;23.80;45.40
53268;DHT22;39156;51.176;6.738;2022-08-05T15:52:31;23.70;44.60
53268;DHT22;39156;51.176;6.738;2022-08-05T15:54:57;23.70;45.20
53268;DHT22;39156;51.176;6.738;2022-08-05T15:57:23;23.70;45.00
53268;DHT22;39156;51.176;6.738;2022-08-05T15:59:49;23.80;44.60
53268;DHT22;39156;51.176;6.738;2022-08-05T16:02:15;23.80;44.30
53268;DHT22;39156;51.176;6.738;2022-08-05T16:04:41;23.70;44.10
53268;DHT22;39156;51.176;6.738;2022-08-05T16:07:07;23.80;44.30
53268;DHT22;39156;51.176;6.738;2022-08-05T16:09:33;23.70;44.10
53268;DHT22;39156;51.176;6.738;2022-08-05T16:11:58;23.70;43.90
53268;DHT22;39156;51.176;6.738;2022-08-05T16:14:24;23.70;43.50
53268;DHT22;39156;51.176;6.738;2022-08-05T16:16:50;23.70;42.80